»·PEaware :: N5491J KVNY-KSMO

N5491J :: KVNY-KSMO

FLIGHT INFORMATION

Flight Status: Arrived
Operator: Privately registered:
United States
More flights under this callsign
Pilot: Aero Safety Training (369)
Aircraft: CESSNA 172 SKYHAWK
(C172)
More flights by this aircraft type
Origin: KVNY Van Nuys
United States
Destination: KSMO Santa Monica Mun
United States
More flights between these airports :: More routes between these airports
Route: +VNY095 DARTS
File this flight plan on PilotEdge
Remarks: pracriceing ifr imc conditions 600 and 2 miles
Altitude:
(Current/Filed)
30ft
Speed:
(Current/Filed)
105kts
Departed: 21-Jan-15 10:23 AM
Arrived: 21-Jan-15 10:56 AM
Distance/Time
Traveled:
12nm/0:33
Distance/Time
To Go:
Arrived

Flight Plot

Page will automatically refresh every two minutes.


Map Options




Map Legend


Flown Route
Filed Route
Departure Airport
Arrival Airport
Navaid (VOR, NDB)
Fix

Horizontal Profiles

Position Reports

Time Latitude Longitude Heading Altitude Ground
Speed
21-Jan-15 09:56 34.217128 -118.496627 13 805ft 0kts
21-Jan-15 09:57 34.217131 -118.496627 13 805ft 0kts
21-Jan-15 09:58 34.217134 -118.496626 13 805ft 0kts
21-Jan-15 09:59 34.216820 -118.495558 180 805ft 9kts
21-Jan-15 10:00 34.216557 -118.495407 109 805ft 0kts
21-Jan-15 10:01 34.216556 -118.495405 109 805ft 0kts
21-Jan-15 10:02 34.216555 -118.495402 109 805ft 0kts
21-Jan-15 10:03 34.216554 -118.495400 109 805ft 0kts
21-Jan-15 10:04 34.216554 -118.495397 109 805ft 0kts
21-Jan-15 10:05 34.216553 -118.495395 109 805ft 0kts
21-Jan-15 10:06 34.216552 -118.495392 109 805ft 0kts
21-Jan-15 10:07 34.216551 -118.495390 109 805ft 0kts
21-Jan-15 10:08 34.216551 -118.495387 109 805ft 0kts
21-Jan-15 10:09 34.216550 -118.495385 109 805ft 0kts
21-Jan-15 10:10 34.216549 -118.495381 109 805ft 0kts
21-Jan-15 10:11 34.217699 -118.492155 357 805ft 16kts
21-Jan-15 10:12 34.218012 -118.491834 82 805ft 0kts
21-Jan-15 10:13 34.218012 -118.491832 82 805ft 0kts
21-Jan-15 10:14 34.218013 -118.491829 82 805ft 0kts
21-Jan-15 10:15 34.218013 -118.491827 82 805ft 0kts
21-Jan-15 10:16 34.218013 -118.491824 82 805ft 0kts
21-Jan-15 10:17 34.218013 -118.491822 82 805ft 0kts
21-Jan-15 10:18 34.214731 -118.490849 174 819ft 62kts
21-Jan-15 10:19 34.196729 -118.482084 121 1584ft 84kts
21-Jan-15 10:20 34.191631 -118.456353 80 2622ft 82kts
21-Jan-15 10:21 34.195157 -118.429560 79 3537ft 79kts
21-Jan-15 10:22 34.195929 -118.403181 101 4280ft 81kts
21-Jan-15 10:23 34.188813 -118.377344 113 4936ft 80kts
21-Jan-15 10:24 34.171804 -118.352586 132 5014ft 104kts
21-Jan-15 10:25 34.152085 -118.327462 134 5012ft 102kts
21-Jan-15 10:26 34.125243 -118.328295 195 4956ft 100kts
21-Jan-15 10:27 34.100558 -118.341464 223 4390ft 90kts
21-Jan-15 10:28 34.083828 -118.362168 225 3246ft 85kts
21-Jan-15 10:29 34.067446 -118.382105 224 2139ft 82kts
21-Jan-15 10:30 34.052280 -118.401974 227 1145ft 85kts
21-Jan-15 10:31 34.035441 -118.423576 227 1120ft 91kts
21-Jan-15 10:32 34.021244 -118.442236 226 692ft 89kts
21-Jan-15 10:33 34.006568 -118.465131 269 1417ft 86kts
21-Jan-15 10:34 34.011309 -118.495173 278 2078ft 105kts
21-Jan-15 10:35 34.017964 -118.531452 280 2916ft 82kts
21-Jan-15 10:36 34.026654 -118.549226 0 3649ft 79kts
21-Jan-15 10:37 34.046428 -118.531304 45 4052ft 103kts
21-Jan-15 10:38 34.068016 -118.506182 42 4058ft 107kts
21-Jan-15 10:39 34.089953 -118.481942 41 4072ft 107kts
21-Jan-15 10:40 34.112100 -118.457927 40 3941ft 100kts
21-Jan-15 10:41 34.132555 -118.435804 43 3312ft 98kts
21-Jan-15 10:42 34.152684 -118.411858 43 3019ft 106kts
21-Jan-15 10:43 34.171737 -118.385279 86 3083ft 105kts
21-Jan-15 10:44 34.153010 -118.356882 133 3014ft 110kts
21-Jan-15 10:45 34.128893 -118.327632 142 3078ft 110kts
21-Jan-15 10:46 34.103974 -118.337095 227 3019ft 101kts
21-Jan-15 10:47 34.085582 -118.360297 225 2601ft 93kts
21-Jan-15 10:48 34.067377 -118.383593 227 1966ft 98kts
21-Jan-15 10:49 34.048998 -118.407188 226 1236ft 93kts
21-Jan-15 10:50 34.031617 -118.430772 230 801ft 95kts
21-Jan-15 10:51 34.018532 -118.448101 223 178ft 32kts
21-Jan-15 10:52 34.013959 -118.454316 316 178ft 4kts

Navigation Log

Ident Type
1. KVNY Airport
2. DARTS Fix
3. KSMO Airport